Observations for LIVERPOOL AIRPORT, United Kingdom (EGGP)

EGGP 170020Z 18004KT CAVOK 16/14 Q1017  
EGGP 162350Z 10002KT CAVOK 17/13 Q1017  
EGGP 162320Z 08002KT CAVOK 17/13 Q1017  
EGGP 162250Z VRB03KT CAVOK 17/13 Q1017  
EGGP 162150Z 04003KT CAVOK 16/12 Q1017  
EGGP 162120Z VRB02KT 9999 FEW045 18/12 Q1017
EGGP 162050Z VRB02KT 9999 FEW045 19/13 Q1017
EGGP 162020Z 32006KT 9999 FEW030 19/13 Q1017
EGGP 161950Z 33006KT 9999 FEW036 20/12 Q1017
EGGP 161920Z 33007KT 290V350 CAVOK 21/13 Q1017  
EGGP 161850Z 32008KT CAVOK 21/12 Q1017  
EGGP 161820Z 33008KT 300V360 CAVOK 22/12 Q1017  
EGGP 161750Z 32006KT 280V020 CAVOK 23/13 Q1017  
EGGP 161720Z 30006KT CAVOK 22/13 Q1017  
EGGP 161650Z 30007KT 9999 FEW049 22/13 Q1018
EGGP 161620Z 28008KT 9999 FEW047 22/13 Q1018
EGGP 161550Z 29007KT 230V310 9999 FEW049 22/13 Q1018
EGGP 161520Z 29008KT 9999 FEW049 22/12 Q1018
EGGP 161450Z 29008KT 260V340 9999 FEW045 22/13 Q1018
EGGP 161420Z 28010KT 250V310 9999 FEW045 23/13 Q1018
EGGP 161350Z 26010KT 9999 FEW045 22/13 Q1018
EGGP 161320Z 28010KT 9999 FEW036 23/14 Q1018
EGGP 161250Z 23008KT 200V270 9999 FEW035 24/13 Q1018
EGGP 161220Z 23007KT 200V270 9999 FEW037 23/11 Q1019
EGGP 161150Z 24007KT 9999 FEW037 23/11 Q1019
EGGP 161120Z 22007KT 150V260 9999 FEW037 23/12 Q1019
EGGP 161050Z 20005KT 150V250 9999 FEW037 22/15 Q1019
EGGP 161020Z VRB02KT 9999 FEW037 21/17 Q1019
EGGP 160950Z VRB02KT 9999 FEW037 19/16 Q1019
EGGP 160920Z 22003KT 9999 FEW027 SCT048 18/15 Q1019 
EGGP 160850Z 22005KT 9999 FEW027 SCT048 17/15 Q1020 
EGGP 160820Z 15003KT 9999 FEW033 SCT044 17/15 Q1020 
EGGP 160750Z 17003KT 9999 FEW034 BKN046 16/14 Q1020 
EGGP 160720Z 25003KT 9999 FEW029 SCT036 BKN048 17/14 Q1020  
EGGP 160650Z VRB02KT 9999 VCSH SCT036 BKN048 17/15 Q1020
EGGP 160620Z 23003KT 9999 VCSH FEW029 SCT040 18/16 Q1020
EGGP 160550Z 32002KT 9999 VCSH FEW029 BKN036 19/15 Q1020
EGGP 160520Z 30004KT 9999 FEW040 18/15 Q1019
EGGP 160450Z 32003KT 9999 FEW039 18/16 Q1019
EGGP 160420Z VRB02KT CAVOK 18/16 Q1019  
EGGP 160350Z 27001KT CAVOK 18/16 Q1019  
EGGP 160320Z VRB01KT CAVOK 18/16 Q1019  
EGGP 160250Z 16001KT CAVOK 18/15 Q1019  
EGGP 160220Z 00000KT CAVOK 18/16 Q1020  
EGGP 160150Z 10003KT CAVOK 18/15 Q1020  
EGGP 160120Z 17003KT CAVOK 18/16 Q1020  
EGGP 160050Z 12003KT CAVOK 18/14 Q1020  
EGGP 160020Z VRB02KT CAVOK 19/15 Q1020  
EGGP 152350Z 04003KT CAVOK 17/14 Q1020